Seymour Johnson AFB, North Carolina
Current Conditions -  °F | °C
As of 5:58 PM on Saturday 25 Oct 2014 (Local Time) from KGSB Reporting Station
Clear Clear  
Wind Chill: 68°   Ceiling: Unl
Heat Index: 68°   Visibility: 10mi
Dew Point: 48°   Wind: 3mph
Humidity: 48%   Direction: 270°W
Pressure: 29.88"   Gusts: NA
Location:  35.3407°N, 77.9695°W
Report Text: KGSB 252158Z AUTO 27003KT 10SM CLR 20/09 A2988 RMK AO2 SLP121 T02010089 $
Loading
Personal Weather Stations






























Interactive Weather Map
Tropical Storm Tracking
New forecast layout! Learn more

10-Day Weather Forecast

Advertisements
Track Severe Weather on mobile